Pagina principale
METAR-TAF:

METAR-TAF

Aeroporti :

Olbia, Italia

Aeroporto di Olbia-Costa Smeralda

latitudine: 40-54N, longitudine: 009-31E, altezza: 11 m

Osservazione

Il bollettino è stato emesso 35 minuti fa, alle 00:20 UTC
Vento 27 kt da ovest/sud-ovest
Temperature 14°C
Umidità 72%
Pressione 1013 hPa
Visibilità 10 km o più
nessuna nube inferiore a 1500 m e nessun cumulonembo

METAR: LIEO 170020Z 25027KT CAVOK 14/09 Q1013

Ora: 01:55 (00:55 UTC)

Previsione

Il bollettino è stato emesso 1 ora e 55 minuti fa, alle 23:00 UTC
Previsione valida dal 17 alle 00 UTC al 17 alle 24 UTC
Vento 20 kt da ovest con raffiche fino a 35 kt
Visibilità 10 km o più
Nubi sparse ad un'altezza di 3000 ft

TAF: LIEO 162300Z 1700/1724 26020G35KT 9999 SCT030

Osservazioni e previsioni meteorologiche di più di 4000 aeroporti (messaggi METAR e TAF).

Le stazioni disponibili sono rappresentate dai dischi gialli e rossi sulla carta.

Puntare il mouse per vedere il nome della stazione.

Clicca sopra per visualizzare le osservazioni e previsioni meteorologiche.

Per cambiare la mappa : fare clic sui pulsanti verdi con una croce nera per ingrandire, il pulsante verde con un trattino per diminuire, o sulla freccia verde per le mappe adiacenti.


METAR-TAF: